sensor_id;sensor_type;location;lat;lon;timestamp;temperature;humidity
14521;DHT22;7347;50.844;4.490;2023-04-24T07:20:29;9.20;99.90
14521;DHT22;7347;50.844;4.490;2023-04-24T07:22:56;9.20;99.90
14521;DHT22;7347;50.844;4.490;2023-04-24T07:25:23;9.30;99.90
14521;DHT22;7347;50.844;4.490;2023-04-24T07:27:50;9.40;99.90
14521;DHT22;7347;50.844;4.490;2023-04-24T07:30:17;9.50;99.90
14521;DHT22;7347;50.844;4.490;2023-04-24T07:32:44;9.60;99.90
14521;DHT22;7347;50.844;4.490;2023-04-24T07:35:11;9.70;99.90
14521;DHT22;7347;50.844;4.490;2023-04-24T07:37:40;9.80;99.90
14521;DHT22;7347;50.844;4.490;2023-04-24T07:40:11;9.80;99.90
14521;DHT22;7347;50.844;4.490;2023-04-24T07:42:38;9.80;99.90
14521;DHT22;7347;50.844;4.490;2023-04-24T07:45:06;9.80;99.90
14521;DHT22;7347;50.844;4.490;2023-04-24T07:47:33;9.80;99.90
14521;DHT22;7347;50.844;4.490;2023-04-24T07:50:00;9.90;99.90
14521;DHT22;7347;50.844;4.490;2023-04-24T07:52:27;10.00;99.90
14521;DHT22;7347;50.844;4.490;2023-04-24T07:54:56;10.60;99.90
14521;DHT22;7347;50.844;4.490;2023-04-24T07:57:25;11.20;99.90
14521;DHT22;7347;50.844;4.490;2023-04-24T07:59:52;11.40;99.90
14521;DHT22;7347;50.844;4.490;2023-04-24T08:02:19;11.40;99.90
14521;DHT22;7347;50.844;4.490;2023-04-24T08:04:51;11.30;99.90
14521;DHT22;7347;50.844;4.490;2023-04-24T08:07:18;10.90;99.90
14521;DHT22;7347;50.844;4.490;2023-04-24T08:09:45;10.90;99.90
14521;DHT22;7347;50.844;4.490;2023-04-24T08:12:13;10.70;99.90
14521;DHT22;7347;50.844;4.490;2023-04-24T08:14:40;10.90;99.90
14521;DHT22;7347;50.844;4.490;2023-04-24T08:17:07;11.30;99.90
14521;DHT22;7347;50.844;4.490;2023-04-24T08:19:34;11.50;99.90
14521;DHT22;7347;50.844;4.490;2023-04-24T08:22:01;11.50;99.90
14521;DHT22;7347;50.844;4.490;2023-04-24T08:24:29;11.40;99.90
14521;DHT22;7347;50.844;4.490;2023-04-24T08:26:56;11.30;99.90
14521;DHT22;7347;50.844;4.490;2023-04-24T08:29:25;11.40;99.90
14521;DHT22;7347;50.844;4.490;2023-04-24T08:31:52;11.50;99.90
14521;DHT22;7347;50.844;4.490;2023-04-24T08:34:20;11.60;99.90
14521;DHT22;7347;50.844;4.490;2023-04-24T08:36:47;11.80;99.90
14521;DHT22;7347;50.844;4.490;2023-04-24T08:39:14;12.10;99.90
14521;DHT22;7347;50.844;4.490;2023-04-24T08:41:42;12.10;99.90
14521;DHT22;7347;50.844;4.490;2023-04-24T08:44:11;12.40;99.90
14521;DHT22;7347;50.844;4.490;2023-04-24T08:46:42;12.90;99.90
14521;DHT22;7347;50.844;4.490;2023-04-24T08:49:09;13.50;99.90
14521;DHT22;7347;50.844;4.490;2023-04-24T08:51:37;13.40;99.90
14521;DHT22;7347;50.844;4.490;2023-04-24T08:54:04;13.10;99.90
14521;DHT22;7347;50.844;4.490;2023-04-24T08:56:33;12.80;99.90
14521;DHT22;7347;50.844;4.490;2023-04-24T08:59:03;12.90;99.90
14521;DHT22;7347;50.844;4.490;2023-04-24T09:01:32;13.20;99.90
14521;DHT22;7347;50.844;4.490;2023-04-24T09:04:02;13.40;99.90
14521;DHT22;7347;50.844;4.490;2023-04-24T09:06:30;13.50;99.90
14521;DHT22;7347;50.844;4.490;2023-04-24T09:09:00;13.60;99.90
14521;DHT22;7347;50.844;4.490;2023-04-24T09:11:27;14.00;99.90
14521;DHT22;7347;50.844;4.490;2023-04-24T09:13:54;14.40;99.90
14521;DHT22;7347;50.844;4.490;2023-04-24T09:16:21;14.50;99.90
14521;DHT22;7347;50.844;4.490;2023-04-24T09:18:49;14.90;99.90
14521;DHT22;7347;50.844;4.490;2023-04-24T09:21:20;14.80;99.90
14521;DHT22;7347;50.844;4.490;2023-04-24T09:23:57;14.10;99.90
14521;DHT22;7347;50.844;4.490;2023-04-24T09:26:24;14.30;99.90
14521;DHT22;7347;50.844;4.490;2023-04-24T09:28:53;14.30;99.90
14521;DHT22;7347;50.844;4.490;2023-04-24T09:31:20;14.10;99.90
14521;DHT22;7347;50.844;4.490;2023-04-24T09:33:54;14.00;99.90
14521;DHT22;7347;50.844;4.490;2023-04-24T09:36:28;14.20;99.90
14521;DHT22;7347;50.844;4.490;2023-04-24T09:38:58;14.30;99.90
14521;DHT22;7347;50.844;4.490;2023-04-24T09:41:26;13.90;99.90
14521;DHT22;7347;50.844;4.490;2023-04-24T09:43:54;13.60;99.90
14521;DHT22;7347;50.844;4.490;2023-04-24T09:46:28;13.40;99.90
14521;DHT22;7347;50.844;4.490;2023-04-24T09:48:55;13.20;99.90
14521;DHT22;7347;50.844;4.490;2023-04-24T09:51:35;13.30;99.90
14521;DHT22;7347;50.844;4.490;2023-04-24T09:54:03;13.40;99.90
14521;DHT22;7347;50.844;4.490;2023-04-24T09:56:33;13.40;99.90
14521;DHT22;7347;50.844;4.490;2023-04-24T09:59:06;13.40;99.90
14521;DHT22;7347;50.844;4.490;2023-04-24T10:01:33;13.90;99.90
14521;DHT22;7347;50.844;4.490;2023-04-24T10:04:00;14.30;99.90
14521;DHT22;7347;50.844;4.490;2023-04-24T10:06:36;14.30;99.90
14521;DHT22;7347;50.844;4.490;2023-04-24T10:09:03;14.00;99.90
14521;DHT22;7347;50.844;4.490;2023-04-24T10:11:30;14.00;99.90
14521;DHT22;7347;50.844;4.490;2023-04-24T10:13:57;14.30;99.90
14521;DHT22;7347;50.844;4.490;2023-04-24T10:16:25;14.40;99.90
14521;DHT22;7347;50.844;4.490;2023-04-24T10:18:54;14.30;99.90
14521;DHT22;7347;50.844;4.490;2023-04-24T10:21:22;14.50;99.90
14521;DHT22;7347;50.844;4.490;2023-04-24T10:23:50;14.60;99.90
14521;DHT22;7347;50.844;4.490;2023-04-24T10:26:18;14.80;99.90
14521;DHT22;7347;50.844;4.490;2023-04-24T10:28:46;14.90;99.90
14521;DHT22;7347;50.844;4.490;2023-04-24T10:31:13;14.90;99.90
14521;DHT22;7347;50.844;4.490;2023-04-24T10:33:41;14.50;99.90
14521;DHT22;7347;50.844;4.490;2023-04-24T10:36:10;14.10;99.90
14521;DHT22;7347;50.844;4.490;2023-04-24T10:38:39;13.90;99.90
14521;DHT22;7347;50.844;4.490;2023-04-24T10:41:09;13.80;99.90
14521;DHT22;7347;50.844;4.490;2023-04-24T10:43:42;13.70;99.90
14521;DHT22;7347;50.844;4.490;2023-04-24T10:46:09;13.90;99.90
14521;DHT22;7347;50.844;4.490;2023-04-24T10:48:42;13.90;99.90
14521;DHT22;7347;50.844;4.490;2023-04-24T10:51:11;13.90;99.90
14521;DHT22;7347;50.844;4.490;2023-04-24T10:53:39;14.00;99.90
14521;DHT22;7347;50.844;4.490;2023-04-24T10:56:08;14.10;99.90
14521;DHT22;7347;50.844;4.490;2023-04-24T10:58:38;14.40;99.90
14521;DHT22;7347;50.844;4.490;2023-04-24T11:01:06;14.60;99.90
14521;DHT22;7347;50.844;4.490;2023-04-24T11:03:34;14.70;99.90
14521;DHT22;7347;50.844;4.490;2023-04-24T11:06:03;14.70;99.90
14521;DHT22;7347;50.844;4.490;2023-04-24T11:08:32;14.30;99.90
14521;DHT22;7347;50.844;4.490;2023-04-24T11:11:10;14.10;99.90
14521;DHT22;7347;50.844;4.490;2023-04-24T11:14:04;13.80;99.90
14521;DHT22;7347;50.844;4.490;2023-04-24T11:16:33;13.80;99.90
14521;DHT22;7347;50.844;4.490;2023-04-24T11:19:02;14.00;99.90
14521;DHT22;7347;50.844;4.490;2023-04-24T11:21:39;14.10;99.90
14521;DHT22;7347;50.844;4.490;2023-04-24T11:24:25;14.10;99.90
14521;DHT22;7347;50.844;4.490;2023-04-24T11:26:54;14.20;99.90
14521;DHT22;7347;50.844;4.490;2023-04-24T11:29:22;14.40;99.90
14521;DHT22;7347;50.844;4.490;2023-04-24T11:31:49;14.10;99.90
14521;DHT22;7347;50.844;4.490;2023-04-24T11:34:17;14.20;99.90
14521;DHT22;7347;50.844;4.490;2023-04-24T11:36:46;14.30;99.90
14521;DHT22;7347;50.844;4.490;2023-04-24T11:39:13;14.40;99.90
14521;DHT22;7347;50.844;4.490;2023-04-24T11:41:41;14.80;99.90
14521;DHT22;7347;50.844;4.490;2023-04-24T11:44:09;15.10;99.90
14521;DHT22;7347;50.844;4.490;2023-04-24T11:46:37;15.20;99.90
14521;DHT22;7347;50.844;4.490;2023-04-24T11:49:05;15.30;99.90
14521;DHT22;7347;50.844;4.490;2023-04-24T11:51:32;15.20;99.90
14521;DHT22;7347;50.844;4.490;2023-04-24T11:54:00;15.00;99.90
14521;DHT22;7347;50.844;4.490;2023-04-24T11:56:28;14.50;99.90
14521;DHT22;7347;50.844;4.490;2023-04-24T11:58:55;14.40;99.90
14521;DHT22;7347;50.844;4.490;2023-04-24T12:01:23;14.50;99.90
14521;DHT22;7347;50.844;4.490;2023-04-24T12:03:51;14.50;99.90
14521;DHT22;7347;50.844;4.490;2023-04-24T12:06:25;14.70;99.90
14521;DHT22;7347;50.844;4.490;2023-04-24T12:08:52;15.10;99.90
14521;DHT22;7347;50.844;4.490;2023-04-24T12:11:20;15.20;99.90
14521;DHT22;7347;50.844;4.490;2023-04-24T12:13:47;15.40;99.90
14521;DHT22;7347;50.844;4.490;2023-04-24T12:16:14;15.60;99.90
14521;DHT22;7347;50.844;4.490;2023-04-24T12:18:46;15.40;99.90
14521;DHT22;7347;50.844;4.490;2023-04-24T12:21:17;15.10;99.90
14521;DHT22;7347;50.844;4.490;2023-04-24T12:23:44;15.10;99.90
14521;DHT22;7347;50.844;4.490;2023-04-24T12:26:12;15.00;99.90
14521;DHT22;7347;50.844;4.490;2023-04-24T12:28:39;14.90;99.90
14521;DHT22;7347;50.844;4.490;2023-04-24T12:31:07;15.10;99.90
14521;DHT22;7347;50.844;4.490;2023-04-24T12:33:35;14.90;99.90
14521;DHT22;7347;50.844;4.490;2023-04-24T12:36:03;14.80;99.90
14521;DHT22;7347;50.844;4.490;2023-04-24T12:38:30;14.60;99.90
14521;DHT22;7347;50.844;4.490;2023-04-24T12:41:07;14.30;99.90
14521;DHT22;7347;50.844;4.490;2023-04-24T12:43:34;14.20;99.90
14521;DHT22;7347;50.844;4.490;2023-04-24T12:46:02;14.30;99.90
14521;DHT22;7347;50.844;4.490;2023-04-24T12:48:29;14.40;99.90
14521;DHT22;7347;50.844;4.490;2023-04-24T12:50:57;14.20;99.90
14521;DHT22;7347;50.844;4.490;2023-04-24T12:53:28;14.30;99.90
14521;DHT22;7347;50.844;4.490;2023-04-24T12:55:56;14.30;99.90
14521;DHT22;7347;50.844;4.490;2023-04-24T12:58:23;14.50;99.90
14521;DHT22;7347;50.844;4.490;2023-04-24T13:00:50;14.60;99.90
14521;DHT22;7347;50.844;4.490;2023-04-24T13:03:18;14.50;99.90
14521;DHT22;7347;50.844;4.490;2023-04-24T13:05:45;14.50;99.90
14521;DHT22;7347;50.844;4.490;2023-04-24T13:08:12;14.70;99.90
14521;DHT22;7347;50.844;4.490;2023-04-24T13:10:40;14.90;99.90
14521;DHT22;7347;50.844;4.490;2023-04-24T13:13:08;15.10;99.90
14521;DHT22;7347;50.844;4.490;2023-04-24T13:15:35;15.20;99.90
14521;DHT22;7347;50.844;4.490;2023-04-24T13:18:02;15.40;99.90
14521;DHT22;7347;50.844;4.490;2023-04-24T13:20:29;15.70;99.90
14521;DHT22;7347;50.844;4.490;2023-04-24T13:22:56;15.90;99.90
14521;DHT22;7347;50.844;4.490;2023-04-24T13:25:23;15.70;99.90
14521;DHT22;7347;50.844;4.490;2023-04-24T13:27:52;15.50;99.90
14521;DHT22;7347;50.844;4.490;2023-04-24T13:30:19;15.30;99.90
14521;DHT22;7347;50.844;4.490;2023-04-24T13:32:46;14.90;99.90
14521;DHT22;7347;50.844;4.490;2023-04-24T13:35:13;14.60;99.90
14521;DHT22;7347;50.844;4.490;2023-04-24T13:37:40;14.70;99.90
14521;DHT22;7347;50.844;4.490;2023-04-24T13:40:08;15.00;99.90
14521;DHT22;7347;50.844;4.490;2023-04-24T13:42:35;15.00;99.90
14521;DHT22;7347;50.844;4.490;2023-04-24T13:45:04;15.20;99.90
14521;DHT22;7347;50.844;4.490;2023-04-24T13:47:31;15.30;99.90
14521;DHT22;7347;50.844;4.490;2023-04-24T13:49:57;15.40;99.90
14521;DHT22;7347;50.844;4.490;2023-04-24T13:52:24;15.30;99.90
14521;DHT22;7347;50.844;4.490;2023-04-24T13:54:51;15.50;99.90
14521;DHT22;7347;50.844;4.490;2023-04-24T13:57:18;15.50;99.90
14521;DHT22;7347;50.844;4.490;2023-04-24T13:59:45;15.50;99.90
14521;DHT22;7347;50.844;4.490;2023-04-24T14:02:13;15.60;99.90
14521;DHT22;7347;50.844;4.490;2023-04-24T14:04:40;15.80;99.90
14521;DHT22;7347;50.844;4.490;2023-04-24T14:07:07;15.90;99.90
14521;DHT22;7347;50.844;4.490;2023-04-24T14:09:34;16.00;99.90
14521;DHT22;7347;50.844;4.490;2023-04-24T14:12:01;15.80;99.90
14521;DHT22;7347;50.844;4.490;2023-04-24T14:14:29;15.80;99.90
14521;DHT22;7347;50.844;4.490;2023-04-24T14:16:56;15.80;99.90
14521;DHT22;7347;50.844;4.490;2023-04-24T14:19:25;15.80;99.90
14521;DHT22;7347;50.844;4.490;2023-04-24T14:21:52;15.80;99.90
14521;DHT22;7347;50.844;4.490;2023-04-24T14:24:19;15.60;99.90
14521;DHT22;7347;50.844;4.490;2023-04-24T14:26:46;15.30;99.90
14521;DHT22;7347;50.844;4.490;2023-04-24T14:29:13;15.20;99.90
14521;DHT22;7347;50.844;4.490;2023-04-24T14:31:40;15.10;99.90
14521;DHT22;7347;50.844;4.490;2023-04-24T14:34:07;15.00;99.90
14521;DHT22;7347;50.844;4.490;2023-04-24T14:36:36;14.80;99.90
14521;DHT22;7347;50.844;4.490;2023-04-24T14:39:03;14.70;99.90
14521;DHT22;7347;50.844;4.490;2023-04-24T14:41:32;14.50;99.90
14521;DHT22;7347;50.844;4.490;2023-04-24T14:44:01;14.60;99.90
14521;DHT22;7347;50.844;4.490;2023-04-24T14:46:28;14.50;99.90
14521;DHT22;7347;50.844;4.490;2023-04-24T14:48:55;14.60;99.90
14521;DHT22;7347;50.844;4.490;2023-04-24T14:51:23;14.50;99.90
14521;DHT22;7347;50.844;4.490;2023-04-24T14:53:52;14.40;99.90
14521;DHT22;7347;50.844;4.490;2023-04-24T14:56:19;14.30;99.90
14521;DHT22;7347;50.844;4.490;2023-04-24T14:58:45;14.30;99.90
14521;DHT22;7347;50.844;4.490;2023-04-24T15:01:12;14.10;99.90
14521;DHT22;7347;50.844;4.490;2023-04-24T15:03:39;13.90;99.90
14521;DHT22;7347;50.844;4.490;2023-04-24T15:06:06;13.80;99.90
14521;DHT22;7347;50.844;4.490;2023-04-24T15:08:33;13.90;99.90
14521;DHT22;7347;50.844;4.490;2023-04-24T15:11:01;13.80;99.90
14521;DHT22;7347;50.844;4.490;2023-04-24T15:13:28;14.00;99.90
14521;DHT22;7347;50.844;4.490;2023-04-24T15:15:55;14.00;99.90
14521;DHT22;7347;50.844;4.490;2023-04-24T15:18:22;14.10;99.90
14521;DHT22;7347;50.844;4.490;2023-04-24T15:20:49;14.20;99.90
14521;DHT22;7347;50.844;4.490;2023-04-24T15:23:16;14.30;99.90
14521;DHT22;7347;50.844;4.490;2023-04-24T15:25:43;14.30;99.90
14521;DHT22;7347;50.844;4.490;2023-04-24T15:28:12;14.40;99.90
14521;DHT22;7347;50.844;4.490;2023-04-24T15:30:39;14.30;99.90
14521;DHT22;7347;50.844;4.490;2023-04-24T15:33:06;14.30;99.90
14521;DHT22;7347;50.844;4.490;2023-04-24T15:35:33;14.20;99.90
14521;DHT22;7347;50.844;4.490;2023-04-24T15:38:01;14.20;99.90
14521;DHT22;7347;50.844;4.490;2023-04-24T15:40:29;14.30;99.90
14521;DHT22;7347;50.844;4.490;2023-04-24T15:42:56;14.20;99.90
14521;DHT22;7347;50.844;4.490;2023-04-24T15:45:24;14.10;99.90
14521;DHT22;7347;50.844;4.490;2023-04-24T15:47:51;14.00;99.90
14521;DHT22;7347;50.844;4.490;2023-04-24T15:50:18;14.00;99.90
14521;DHT22;7347;50.844;4.490;2023-04-24T15:52:47;13.90;99.90
14521;DHT22;7347;50.844;4.490;2023-04-24T15:55:14;13.80;99.90
14521;DHT22;7347;50.844;4.490;2023-04-24T15:57:42;13.80;99.90
14521;DHT22;7347;50.844;4.490;2023-04-24T16:00:09;13.70;99.90
14521;DHT22;7347;50.844;4.490;2023-04-24T16:02:38;13.80;99.90
14521;DHT22;7347;50.844;4.490;2023-04-24T16:05:05;13.80;99.90
14521;DHT22;7347;50.844;4.490;2023-04-24T16:07:33;13.70;99.90
14521;DHT22;7347;50.844;4.490;2023-04-24T16:10:00;13.70;99.90
14521;DHT22;7347;50.844;4.490;2023-04-24T16:12:27;13.70;99.90
14521;DHT22;7347;50.844;4.490;2023-04-24T16:14:54;13.60;99.90
14521;DHT22;7347;50.844;4.490;2023-04-24T16:17:22;13.60;99.90
14521;DHT22;7347;50.844;4.490;2023-04-24T16:19:50;13.70;99.90
14521;DHT22;7347;50.844;4.490;2023-04-24T16:22:17;13.50;99.90
14521;DHT22;7347;50.844;4.490;2023-04-24T16:24:44;13.50;99.90
14521;DHT22;7347;50.844;4.490;2023-04-24T16:27:13;13.60;99.90
14521;DHT22;7347;50.844;4.490;2023-04-24T16:29:40;13.70;99.90
14521;DHT22;7347;50.844;4.490;2023-04-24T16:32:08;13.60;99.90
14521;DHT22;7347;50.844;4.490;2023-04-24T16:34:35;13.60;99.90
14521;DHT22;7347;50.844;4.490;2023-04-24T16:37:03;13.70;99.90
14521;DHT22;7347;50.844;4.490;2023-04-24T16:39:30;13.70;99.90
14521;DHT22;7347;50.844;4.490;2023-04-24T16:41:57;13.70;99.90
14521;DHT22;7347;50.844;4.490;2023-04-24T16:44:24;13.70;99.90
14521;DHT22;7347;50.844;4.490;2023-04-24T16:46:51;13.50;99.90
14521;DHT22;7347;50.844;4.490;2023-04-24T16:49:18;13.40;99.90
14521;DHT22;7347;50.844;4.490;2023-04-24T16:51:45;13.40;99.90
14521;DHT22;7347;50.844;4.490;2023-04-24T16:54:13;13.40;99.90
14521;DHT22;7347;50.844;4.490;2023-04-24T16:56:40;13.30;99.90
14521;DHT22;7347;50.844;4.490;2023-04-24T16:59:07;13.30;99.90
14521;DHT22;7347;50.844;4.490;2023-04-24T17:01:34;13.30;99.90
14521;DHT22;7347;50.844;4.490;2023-04-24T17:04:01;13.40;99.90
14521;DHT22;7347;50.844;4.490;2023-04-24T17:06:28;13.60;99.90
14521;DHT22;7347;50.844;4.490;2023-04-24T17:08:56;13.60;99.90
14521;DHT22;7347;50.844;4.490;2023-04-24T17:11:26;13.40;99.90
14521;DHT22;7347;50.844;4.490;2023-04-24T17:13:53;13.40;99.90
14521;DHT22;7347;50.844;4.490;2023-04-24T17:16:20;13.40;99.90
14521;DHT22;7347;50.844;4.490;2023-04-24T17:18:47;13.30;99.90
14521;DHT22;7347;50.844;4.490;2023-04-24T17:21:14;13.10;99.90
14521;DHT22;7347;50.844;4.490;2023-04-24T17:23:41;13.10;99.90
14521;DHT22;7347;50.844;4.490;2023-04-24T17:26:08;13.00;99.90
14521;DHT22;7347;50.844;4.490;2023-04-24T17:28:37;13.10;99.90
14521;DHT22;7347;50.844;4.490;2023-04-24T17:31:04;13.10;99.90
14521;DHT22;7347;50.844;4.490;2023-04-24T17:33:31;12.90;99.90
14521;DHT22;7347;50.844;4.490;2023-04-24T17:35:59;13.00;99.90
14521;DHT22;7347;50.844;4.490;2023-04-24T17:38:27;12.80;99.90
14521;DHT22;7347;50.844;4.490;2023-04-24T17:40:54;12.50;99.90
14521;DHT22;7347;50.844;4.490;2023-04-24T17:43:21;12.30;99.90
14521;DHT22;7347;50.844;4.490;2023-04-24T17:45:51;12.20;99.90
14521;DHT22;7347;50.844;4.490;2023-04-24T17:48:20;12.20;99.90
14521;DHT22;7347;50.844;4.490;2023-04-24T17:50:47;12.20;99.90
14521;DHT22;7347;50.844;4.490;2023-04-24T17:53:15;12.10;99.90
14521;DHT22;7347;50.844;4.490;2023-04-24T17:55:43;12.30;99.90
14521;DHT22;7347;50.844;4.490;2023-04-24T17:58:11;12.20;99.90
14521;DHT22;7347;50.844;4.490;2023-04-24T18:00:38;12.30;99.90
14521;DHT22;7347;50.844;4.490;2023-04-24T18:03:07;12.20;99.90
14521;DHT22;7347;50.844;4.490;2023-04-24T18:05:35;12.10;99.90
14521;DHT22;7347;50.844;4.490;2023-04-24T18:08:03;12.10;99.90
14521;DHT22;7347;50.844;4.490;2023-04-24T18:10:31;12.30;99.90
14521;DHT22;7347;50.844;4.490;2023-04-24T18:13:00;12.30;99.90
14521;DHT22;7347;50.844;4.490;2023-04-24T18:15:27;12.10;99.90
14521;DHT22;7347;50.844;4.490;2023-04-24T18:17:54;12.00;99.90
14521;DHT22;7347;50.844;4.490;2023-04-24T18:20:22;12.10;99.90
14521;DHT22;7347;50.844;4.490;2023-04-24T18:22:49;12.20;99.90
14521;DHT22;7347;50.844;4.490;2023-04-24T18:25:16;12.10;99.90
14521;DHT22;7347;50.844;4.490;2023-04-24T18:27:47;12.10;99.90
14521;DHT22;7347;50.844;4.490;2023-04-24T18:30:14;12.10;99.90
14521;DHT22;7347;50.844;4.490;2023-04-24T18:32:41;12.20;99.90
14521;DHT22;7347;50.844;4.490;2023-04-24T18:35:09;12.10;99.90
14521;DHT22;7347;50.844;4.490;2023-04-24T18:37:37;12.00;99.90
14521;DHT22;7347;50.844;4.490;2023-04-24T18:40:06;12.10;99.90
14521;DHT22;7347;50.844;4.490;2023-04-24T18:42:33;12.10;99.90
14521;DHT22;7347;50.844;4.490;2023-04-24T18:45:00;12.10;99.90
14521;DHT22;7347;50.844;4.490;2023-04-24T18:47:29;12.00;99.90
14521;DHT22;7347;50.844;4.490;2023-04-24T18:49:56;11.80;99.90
14521;DHT22;7347;50.844;4.490;2023-04-24T18:52:23;11.60;99.90
14521;DHT22;7347;50.844;4.490;2023-04-24T18:54:51;11.60;99.90
14521;DHT22;7347;50.844;4.490;2023-04-24T18:57:18;11.60;99.90
14521;DHT22;7347;50.844;4.490;2023-04-24T18:59:45;11.60;99.90
14521;DHT22;7347;50.844;4.490;2023-04-24T19:02:12;11.50;99.90
14521;DHT22;7347;50.844;4.490;2023-04-24T19:04:39;11.30;99.90
14521;DHT22;7347;50.844;4.490;2023-04-24T19:07:06;11.20;99.90
14521;DHT22;7347;50.844;4.490;2023-04-24T19:09:33;11.30;99.90
14521;DHT22;7347;50.844;4.490;2023-04-24T19:12:01;11.30;99.90
14521;DHT22;7347;50.844;4.490;2023-04-24T19:14:28;11.30;99.90
14521;DHT22;7347;50.844;4.490;2023-04-24T19:16:55;11.30;99.90
14521;DHT22;7347;50.844;4.490;2023-04-24T19:19:22;11.20;99.90
14521;DHT22;7347;50.844;4.490;2023-04-24T19:21:50;11.20;99.90
14521;DHT22;7347;50.844;4.490;2023-04-24T19:24:17;11.10;99.90
14521;DHT22;7347;50.844;4.490;2023-04-24T19:26:45;10.90;99.90
14521;DHT22;7347;50.844;4.490;2023-04-24T19:29:14;10.80;99.90
14521;DHT22;7347;50.844;4.490;2023-04-24T19:31:40;10.80;99.90
14521;DHT22;7347;50.844;4.490;2023-04-24T19:34:07;10.80;99.90
14521;DHT22;7347;50.844;4.490;2023-04-24T19:36:34;10.80;99.90
14521;DHT22;7347;50.844;4.490;2023-04-24T19:39:01;10.70;99.90
14521;DHT22;7347;50.844;4.490;2023-04-24T19:41:28;10.80;99.90
14521;DHT22;7347;50.844;4.490;2023-04-24T19:43:55;10.80;99.90
14521;DHT22;7347;50.844;4.490;2023-04-24T19:46:23;10.80;99.90
14521;DHT22;7347;50.844;4.490;2023-04-24T19:48:50;11.00;99.90
14521;DHT22;7347;50.844;4.490;2023-04-24T19:51:17;11.10;99.90
14521;DHT22;7347;50.844;4.490;2023-04-24T19:53:44;11.20;99.90
14521;DHT22;7347;50.844;4.490;2023-04-24T19:56:11;11.10;99.90
14521;DHT22;7347;50.844;4.490;2023-04-24T19:58:38;11.00;99.90
14521;DHT22;7347;50.844;4.490;2023-04-24T20:01:05;11.10;99.90
14521;DHT22;7347;50.844;4.490;2023-04-24T20:03:33;10.90;99.90
14521;DHT22;7347;50.844;4.490;2023-04-24T20:06:00;11.00;99.90
14521;DHT22;7347;50.844;4.490;2023-04-24T20:08:27;10.90;99.90
14521;DHT22;7347;50.844;4.490;2023-04-24T20:10:55;11.00;99.90
14521;DHT22;7347;50.844;4.490;2023-04-24T20:13:22;11.00;99.90
14521;DHT22;7347;50.844;4.490;2023-04-24T20:15:50;11.10;99.90
14521;DHT22;7347;50.844;4.490;2023-04-24T20:18:17;11.00;99.90
14521;DHT22;7347;50.844;4.490;2023-04-24T20:20:47;10.80;99.90
14521;DHT22;7347;50.844;4.490;2023-04-24T20:23:14;10.80;99.90
14521;DHT22;7347;50.844;4.490;2023-04-24T20:25:41;10.80;99.90
14521;DHT22;7347;50.844;4.490;2023-04-24T20:28:07;10.80;99.90
14521;DHT22;7347;50.844;4.490;2023-04-24T20:30:34;10.80;99.90
14521;DHT22;7347;50.844;4.490;2023-04-24T20:33:02;10.90;99.90
14521;DHT22;7347;50.844;4.490;2023-04-24T20:35:29;10.90;99.90
14521;DHT22;7347;50.844;4.490;2023-04-24T20:37:57;10.80;99.90
14521;DHT22;7347;50.844;4.490;2023-04-24T20:40:26;10.70;99.90
14521;DHT22;7347;50.844;4.490;2023-04-24T20:42:54;10.70;99.90
14521;DHT22;7347;50.844;4.490;2023-04-24T20:45:22;10.80;99.90
14521;DHT22;7347;50.844;4.490;2023-04-24T20:47:49;10.80;99.90
14521;DHT22;7347;50.844;4.490;2023-04-24T20:50:16;10.80;99.90
14521;DHT22;7347;50.844;4.490;2023-04-24T20:52:43;10.80;99.90
14521;DHT22;7347;50.844;4.490;2023-04-24T20:55:12;10.80;99.90
14521;DHT22;7347;50.844;4.490;2023-04-24T20:57:39;10.70;99.90
14521;DHT22;7347;50.844;4.490;2023-04-24T21:00:07;10.60;99.90
14521;DHT22;7347;50.844;4.490;2023-04-24T21:02:35;10.50;99.90
14521;DHT22;7347;50.844;4.490;2023-04-24T21:05:02;10.60;99.90
14521;DHT22;7347;50.844;4.490;2023-04-24T21:07:29;10.60;99.90
14521;DHT22;7347;50.844;4.490;2023-04-24T21:09:56;10.60;99.90
14521;DHT22;7347;50.844;4.490;2023-04-24T21:12:24;10.70;99.90
14521;DHT22;7347;50.844;4.490;2023-04-24T21:14:51;10.70;99.90
14521;DHT22;7347;50.844;4.490;2023-04-24T21:17:18;10.70;99.90
14521;DHT22;7347;50.844;4.490;2023-04-24T21:19:45;10.80;99.90
14521;DHT22;7347;50.844;4.490;2023-04-24T21:22:12;10.90;99.90
14521;DHT22;7347;50.844;4.490;2023-04-24T21:24:39;10.80;99.90
14521;DHT22;7347;50.844;4.490;2023-04-24T21:27:06;10.80;99.90
14521;DHT22;7347;50.844;4.490;2023-04-24T21:29:35;10.90;99.90
14521;DHT22;7347;50.844;4.490;2023-04-24T21:32:02;10.90;99.90
14521;DHT22;7347;50.844;4.490;2023-04-24T21:34:29;11.00;99.90
14521;DHT22;7347;50.844;4.490;2023-04-24T21:36:56;10.90;99.90
14521;DHT22;7347;50.844;4.490;2023-04-24T21:39:22;10.80;99.90
14521;DHT22;7347;50.844;4.490;2023-04-24T21:41:50;10.80;99.90
14521;DHT22;7347;50.844;4.490;2023-04-24T21:44:17;10.70;99.90
